
Distance (Route):
Temperature : 0°C
Humidity : 0%
Pressure : 0hPa| Receiver | Frames | First received | Last received |
|---|---|---|---|
| SQ9PSP-11 | 118 | 2026-09-04 06:19:05 | 2026-09-04 07:07:17 |
| SP9KGR-15 | 64 | 2026-09-04 06:34:51 | 2026-09-04 06:52:09 |
| OM5KV | 44 | 2026-09-04 06:48:46 | 2026-09-04 06:56:39 |
| AKAW683 | 25 | 2026-09-04 05:59:15 | 2026-09-04 07:05:35 |
| SQ9EZE-14 | 7 | 2026-09-04 06:39:53 | 2026-09-04 06:51:32 |
| Receiver | Date | Latitude | Longitude | Direction | Speed | Altitude | Climb | Temperature | Humidity | Pressure | Voltage | Killtimer | Uptime | BKT | XDATA |
|---|---|---|---|---|---|---|---|---|---|---|---|---|---|---|---|
| SQ9PSP-11 | 2026-09-04 07:07:17 | 49.94603 | 22.01544 | 133° | 97km/h | 5790m | -13.3m/s | 0°C | 0% | 0hPa | 0V | 00:00:00 | 00:00:00 | 00:00:00 | |
| SQ9PSP-11 | 2026-09-04 07:06:29 | 49.95343 | 22.00310 | 133° | 84km/h | 6445m | -13.9m/s | 0°C | 0% | 0hPa | 0V | 00:00:00 | 00:00:00 | 00:00:00 | |
| SQ9PSP-11 | 2026-09-04 07:06:12 | 49.95585 | 21.99910 | 132° | 86km/h | 6681m | -13.9m/s | 0°C | 0% | 0hPa | 0V | 00:00:00 | 00:00:00 | 00:00:00 | |
| SQ9PSP-11 | 2026-09-04 07:05:57 | 49.95811 | 21.99542 | 139° | 89km/h | 6890m | -13.9m/s | 0°C | 0% | 0hPa | 0V | 00:00:00 | 00:00:00 | 00:00:00 | |
| SQ9PSP-11 | 2026-09-04 07:05:42 | 49.96080 | 21.99182 | 140° | 95km/h | 7102m | -13.7m/s | 0°C | 0% | 0hPa | 0V | 00:00:00 | 00:00:00 | 00:00:00 | |
| AKAW683 | 2026-09-04 07:05:35 | 49.96229 | 21.98996 | 143° | 97km/h | 7215m | -14.1m/s | 0°C | -1.0% | -1.0hPa | 0V | 00:00:00 | 00:00:00 | 00:00:00 | |
| SQ9PSP-11 | 2026-09-04 07:05:26 | 49.96382 | 21.98807 | 141° | 97km/h | 7329m | -14.0m/s | 0°C | 0% | 0hPa | 0V | 00:00:00 | 00:00:00 | 00:00:00 | |
| SQ9PSP-11 | 2026-09-04 07:05:11 | 49.96689 | 21.98452 | 145° | 108km/h | 7546m | -14.4m/s | 0°C | 0% | 0hPa | 0V | 00:00:00 | 00:00:00 | 00:00:00 | |
| SQ9PSP-11 | 2026-09-04 07:04:56 | 49.97026 | 21.98076 | 144° | 110km/h | 7765m | -14.7m/s | 0°C | 0% | 0hPa | 0V | 00:00:00 | 00:00:00 | 00:00:00 | |
| SQ9PSP-11 | 2026-09-04 07:04:40 | 49.97404 | 21.97639 | 144° | 122km/h | 8003m | -14.8m/s | 0°C | 0% | 0hPa | 0V | 00:00:00 | 00:00:00 | 00:00:00 | |
| SQ9PSP-11 | 2026-09-04 07:04:24 | 49.97819 | 21.97211 | 149° | 120km/h | 8238m | -14.6m/s | 0°C | 0% | 0hPa | 0V | 00:00:00 | 00:00:00 | 00:00:00 | |
| SQ9PSP-11 | 2026-09-04 07:04:09 | 49.98210 | 21.96845 | 150° | 124km/h | 8458m | -14.6m/s | 0°C | 0% | 0hPa | 0V | 00:00:00 | 00:00:00 | 00:00:00 | |
| AKAW683 | 2026-09-04 07:04:02 | 49.98454 | 21.96624 | 150° | 124km/h | 8590m | -14.6m/s | 0°C | -1.0% | -1.0hPa | 0V | 00:00:00 | 00:00:00 | 00:00:00 | |
| SQ9PSP-11 | 2026-09-04 07:03:53 | 49.98649 | 21.96447 | 150° | 130km/h | 8691m | -14.2m/s | 0°C | 0% | 0hPa | 0V | 00:00:00 | 00:00:00 | 00:00:00 | |
| SQ9PSP-11 | 2026-09-04 07:03:38 | 49.99069 | 21.96058 | 149° | 131km/h | 8907m | -14.4m/s | 0°C | 0% | 0hPa | 0V | 00:00:00 | 00:00:00 | 00:00:00 | |
| AKAW683 | 2026-09-04 07:03:31 | 49.99412 | 21.95744 | 150° | 131km/h | 9082m | -14.6m/s | 0°C | -1.0% | -1.0hPa | 0V | 00:00:00 | 00:00:00 | 00:00:00 | |
| SQ9PSP-11 | 2026-09-04 07:03:22 | 49.99528 | 21.95639 | 151° | 131km/h | 9141m | -14.8m/s | 0°C | 0% | 0hPa | 0V | 00:00:00 | 00:00:00 | 00:00:00 | |
| SQ9PSP-11 | 2026-09-04 07:03:06 | 50.00016 | 21.95234 | 156° | 141km/h | 9380m | -14.8m/s | 0°C | 0% | 0hPa | 0V | 00:00:00 | 00:00:00 | 00:00:00 | |
| AKAW683 | 2026-09-04 07:03:00 | 50.00235 | 21.95071 | 153° | 137km/h | 9486m | -15.0m/s | 0°C | -1.0% | -1.0hPa | 0V | 00:00:00 | 00:00:00 | 00:00:00 | |
| SQ9PSP-11 | 2026-09-04 07:02:51 | 50.00486 | 21.94884 | 156° | 141km/h | 9607m | -15.1m/s | 0°C | 0% | 0hPa | 0V | 00:00:00 | 00:00:00 | 00:00:00 | |
| SQ9PSP-11 | 2026-09-04 07:02:35 | 50.01002 | 21.94510 | 156° | 144km/h | 9850m | -15.3m/s | 0°C | 0% | 0hPa | 0V | 00:00:00 | 00:00:00 | 00:00:00 | |
| AKAW683 | 2026-09-04 07:02:29 | 50.01272 | 21.94320 | 156° | 148km/h | 9973m | -15.5m/s | 0°C | -1.0% | -1.0hPa | 0V | 00:00:00 | 00:00:00 | 00:00:00 | |
| SQ9PSP-11 | 2026-09-04 07:02:20 | 50.01511 | 21.94154 | 156° | 150km/h | 10081m | -15.4m/s | 0°C | 0% | 0hPa | 0V | 00:00:00 | 00:00:00 | 00:00:00 | |
| SQ9PSP-11 | 2026-09-04 07:02:05 | 50.02027 | 21.93792 | 157° | 153km/h | 10316m | -15.8m/s | 0°C | 0% | 0hPa | 0V | 00:00:00 | 00:00:00 | 00:00:00 | |
| AKAW683 | 2026-09-04 07:01:58 | 50.02307 | 21.93592 | 155° | 150km/h | 10440m | -15.4m/s | 0°C | -1.0% | -1.0hPa | 0V | 00:00:00 | 00:00:00 | 00:00:00 | |
| SQ9PSP-11 | 2026-09-04 07:01:49 | 50.02586 | 21.93388 | 156° | 157km/h | 10566m | -15.5m/s | 0°C | 0% | 0hPa | 0V | 00:00:00 | 00:00:00 | 00:00:00 | |
| SQ9PSP-11 | 2026-09-04 07:01:33 | 50.03156 | 21.92957 | 153° | 159km/h | 10819m | -15.9m/s | 0°C | 0% | 0hPa | 0V | 00:00:00 | 00:00:00 | 00:00:00 | |
| AKAW683 | 2026-09-04 07:01:27 | 50.03406 | 21.92756 | 151° | 159km/h | 10932m | -16.2m/s | 0°C | -1.0% | -1.0hPa | 0V | 00:00:00 | 00:00:00 | 00:00:00 | |
| SQ9PSP-11 | 2026-09-04 07:01:17 | 50.03729 | 21.92495 | 154° | 161km/h | 11077m | -16.3m/s | 0°C | 0% | 0hPa | 0V | 00:00:00 | 00:00:00 | 00:00:00 | |
| SQ9PSP-11 | 2026-09-04 07:01:01 | 50.04325 | 21.92033 | 153° | 168km/h | 11339m | -16.6m/s | 0°C | 0% | 0hPa | 0V | 00:00:00 | 00:00:00 | 00:00:00 | |
| SQ9PSP-11 | 2026-09-04 07:00:45 | 50.04923 | 21.91530 | 152° | 168km/h | 11606m | -16.9m/s | 0°C | 0% | 0hPa | 0V | 00:00:00 | 00:00:00 | 00:00:00 | |
| SQ9PSP-11 | 2026-09-04 07:00:26 | 50.05636 | 21.90927 | 153° | 168km/h | 11930m | -17.3m/s | 0°C | 0% | 0hPa | 0V | 00:00:00 | 00:00:00 | 00:00:00 | |
| OM5KV | 2026-09-04 06:56:39 | 50.09810 | 21.86298 | 111° | 33km/h | 16554m | -12.1m/s | 0°C | 0% | 0hPa | 0V | 00:00:00 | 00:00:00 | 00:00:00 | |
| OM5KV | 2026-09-04 06:56:34 | 50.09822 | 21.86229 | 98° | 38km/h | 16566m | 1.9m/s | 0°C | 0% | 0hPa | 0V | 00:00:00 | 00:00:00 | 00:00:00 | |
| OM5KV | 2026-09-04 06:56:30 | 50.09834 | 21.86177 | 100° | 37km/h | 16550m | 2.4m/s | 0°C | 0% | 0hPa | 0V | 00:00:00 | 00:00:00 | 00:00:00 | |
| OM5KV | 2026-09-04 06:56:26 | 50.09848 | 21.86125 | 102° | 33km/h | 16535m | 2.1m/s | 0°C | 0% | 0hPa | 0V | 00:00:00 | 00:00:00 | 00:00:00 | |
| OM5KV | 2026-09-04 06:56:24 | 50.09860 | 21.86101 | 115° | 44km/h | 16528m | 2.6m/s | 0°C | 0% | 0hPa | 0V | 00:00:00 | 00:00:00 | 00:00:00 | |
| OM5KV | 2026-09-04 06:56:19 | 50.09872 | 21.86032 | 79° | 22km/h | 16510m | 1.9m/s | 0°C | 0% | 0hPa | 0V | 00:00:00 | 00:00:00 | 00:00:00 | |
| OM5KV | 2026-09-04 06:56:08 | 50.09906 | 21.85895 | 133° | 29km/h | 16473m | 3.3m/s | 0°C | 0% | 0hPa | 0V | 00:00:00 | 00:00:00 | 00:00:00 | |
| OM5KV | 2026-09-04 06:56:02 | 50.09923 | 21.85826 | 110° | 33km/h | 16451m | 2.0m/s | 0°C | 0% | 0hPa | 0V | 00:00:00 | 00:00:00 | 00:00:00 | |
| OM5KV | 2026-09-04 06:55:48 | 50.09988 | 21.85668 | 134° | 47km/h | 16398m | 3.8m/s | 0°C | 0% | 0hPa | 0V | 00:00:00 | 00:00:00 | 00:00:00 | |
| OM5KV | 2026-09-04 06:55:38 | 50.10045 | 21.85577 | 140° | 51km/h | 16357m | 0.2m/s | 0°C | 0% | 0hPa | 0V | 00:00:00 | 00:00:00 | 00:00:00 | |
| OM5KV | 2026-09-04 06:55:28 | 50.10108 | 21.85489 | 116° | 22km/h | 16324m | 1.1m/s | 0°C | 0% | 0hPa | 0V | 00:00:00 | 00:00:00 | 00:00:00 | |
| OM5KV | 2026-09-04 06:55:22 | 50.10147 | 21.85431 | 164° | 37km/h | 16303m | 2.5m/s | 0°C | 0% | 0hPa | 0V | 00:00:00 | 00:00:00 | 00:00:00 | |
| OM5KV | 2026-09-04 06:55:11 | 50.10213 | 21.85341 | 132° | 26km/h | 16263m | 3.4m/s | 0°C | 0% | 0hPa | 0V | 00:00:00 | 00:00:00 | 00:00:00 | |
| OM5KV | 2026-09-04 06:54:58 | 50.10299 | 21.85225 | 156° | 46km/h | 16218m | 1.2m/s | 0°C | 0% | 0hPa | 0V | 00:00:00 | 00:00:00 | 00:00:00 | |
| OM5KV | 2026-09-04 06:54:42 | 50.10401 | 21.85058 | 108° | 44km/h | 16163m | 3.7m/s | 0°C | 0% | 0hPa | 0V | 00:00:00 | 00:00:00 | 00:00:00 | |
| OM5KV | 2026-09-04 06:54:36 | 50.10445 | 21.84994 | 129° | 27km/h | 16141m | 2.9m/s | 0°C | 0% | 0hPa | 0V | 00:00:00 | 00:00:00 | 00:00:00 | |
| OM5KV | 2026-09-04 06:54:26 | 50.10513 | 21.84884 | 126° | 42km/h | 16107m | 2.4m/s | 0°C | 0% | 0hPa | 0V | 00:00:00 | 00:00:00 | 00:00:00 | |
| OM5KV | 2026-09-04 06:54:14 | 50.10594 | 21.84768 | 146° | 24km/h | 16059m | 3.5m/s | 0°C | 0% | 0hPa | 0V | 00:00:00 | 00:00:00 | 00:00:00 | |
| OM5KV | 2026-09-04 06:53:47 | 50.10803 | 21.84520 | 130° | 40km/h | 15960m | 5.1m/s | 0°C | 0% | 0hPa | 0V | 00:00:00 | 00:00:00 | 00:00:00 | |
| OM5KV | 2026-09-04 06:53:39 | 50.10876 | 21.84449 | 156° | 47km/h | 15929m | 2.0m/s | 0°C | 0% | 0hPa | 0V | 00:00:00 | 00:00:00 | 00:00:00 | |
| SQ9PSP-11 | 2026-09-04 06:52:13 | 50.11814 | 21.83232 | 139° | 68km/h | 15613m | 2.4m/s | 0°C | 0% | 0hPa | 0V | 00:00:00 | 00:00:00 | 00:00:00 | |
| SP9KGR-15 | 2026-09-04 06:52:09 | 50.11858 | 21.83153 | 134° | 77km/h | 15599m | 3.9m/s | 0°C | 0% | 0hPa | 0V | 00:00:00 | 00:00:00 | 00:00:00 | |
| SP9KGR-15 | 2026-09-04 06:51:54 | 50.12001 | 21.82862 | 118° | 64km/h | 15543m | 1.2m/s | 0°C | 0% | 0hPa | 0V | 00:00:00 | 00:00:00 | 00:00:00 | |
| SP9KGR-15 | 2026-09-04 06:51:33 | 50.12189 | 21.82464 | 133° | 58km/h | 15465m | 3.8m/s | 0°C | 0% | 0hPa | 0V | 00:00:00 | 00:00:00 | 00:00:00 | |
| SQ9EZE-14 | 2026-09-04 06:51:32 | 50.12199 | 21.82445 | 126° | 68km/h | 15463m | -0.4m/s | 0°C | 0% | 0hPa | 0V | 00:00:00 | 00:00:00 | 00:00:00 | |
| SQ9PSP-11 | 2026-09-04 06:51:30 | 50.12214 | 21.82411 | 133° | 37km/h | 15456m | 1.0m/s | 0°C | 0% | 0hPa | 0V | 00:00:00 | 00:00:00 | 00:00:00 | |
| SP9KGR-15 | 2026-09-04 06:51:18 | 50.12318 | 21.82213 | 123° | 60km/h | 15415m | 3.3m/s | 0°C | 0% | 0hPa | 0V | 00:00:00 | 00:00:00 | 00:00:00 | |
| SQ9PSP-11 | 2026-09-04 06:51:10 | 50.12385 | 21.82074 | 133° | 69km/h | 15388m | 1.1m/s | 0°C | 0% | 0hPa | 0V | 00:00:00 | 00:00:00 | 00:00:00 | |
| SP9KGR-15 | 2026-09-04 06:51:02 | 50.12454 | 21.81923 | 116° | 57km/h | 15359m | 5.9m/s | 0°C | 0% | 0hPa | 0V | 00:00:00 | 00:00:00 | 00:00:00 | |
| OM5KV | 2026-09-04 06:51:01 | 50.12460 | 21.81905 | 120° | 46km/h | 15356m | -0.5m/s | 0°C | 0% | 0hPa | 0V | 00:00:00 | 00:00:00 | 00:00:00 | |
| OM5KV | 2026-09-04 06:50:59 | 50.12479 | 21.81868 | 126° | 66km/h | 15349m | -0.0m/s | 0°C | 0% | 0hPa | 0V | 00:00:00 | 00:00:00 | 00:00:00 | |
| SQ9PSP-11 | 2026-09-04 06:50:55 | 50.12514 | 21.81788 | 115° | 66km/h | 15332m | 3.5m/s | 0°C | 0% | 0hPa | 0V | 00:00:00 | 00:00:00 | 00:00:00 | |
| OM5KV | 2026-09-04 06:50:51 | 50.12545 | 21.81708 | 113° | 55km/h | 15319m | 4.2m/s | 0°C | 0% | 0hPa | 0V | 00:00:00 | 00:00:00 | 00:00:00 | |
| SP9KGR-15 | 2026-09-04 06:50:46 | 50.12587 | 21.81606 | 124° | 75km/h | 15300m | 3.9m/s | 0°C | 0% | 0hPa | 0V | 00:00:00 | 00:00:00 | 00:00:00 | |
| OM5KV | 2026-09-04 06:50:42 | 50.12620 | 21.81523 | 108° | 60km/h | 15285m | 4.2m/s | 0°C | 0% | 0hPa | 0V | 00:00:00 | 00:00:00 | 00:00:00 | |
| SQ9PSP-11 | 2026-09-04 06:50:38 | 50.12654 | 21.81443 | 117° | 42km/h | 15272m | 2.3m/s | 0°C | 0% | 0hPa | 0V | 00:00:00 | 00:00:00 | 00:00:00 | |
| OM5KV | 2026-09-04 06:50:36 | 50.12672 | 21.81406 | 119° | 77km/h | 15265m | 0.5m/s | 0°C | 0% | 0hPa | 0V | 00:00:00 | 00:00:00 | 00:00:00 | |
| SP9KGR-15 | 2026-09-04 06:50:31 | 50.12712 | 21.81306 | 136° | 55km/h | 15245m | 2.3m/s | 0°C | 0% | 0hPa | 0V | 00:00:00 | 00:00:00 | 00:00:00 | |
| OM5KV | 2026-09-04 06:50:29 | 50.12729 | 21.81267 | 119° | 58km/h | 15236m | 2.7m/s | 0°C | 0% | 0hPa | 0V | 00:00:00 | 00:00:00 | 00:00:00 | |
| OM5KV | 2026-09-04 06:50:28 | 50.12736 | 21.81248 | 122° | 51km/h | 15233m | 3.8m/s | 0°C | 0% | 0hPa | 0V | 00:00:00 | 00:00:00 | 00:00:00 | |
| SQ9PSP-11 | 2026-09-04 06:50:22 | 50.12784 | 21.81139 | 108° | 58km/h | 15211m | 1.9m/s | 0°C | 0% | 0hPa | 0V | 00:00:00 | 00:00:00 | 00:00:00 | |
| OM5KV | 2026-09-04 06:50:17 | 50.12819 | 21.81050 | 142° | 58km/h | 15194m | 2.5m/s | 0°C | 0% | 0hPa | 0V | 00:00:00 | 00:00:00 | 00:00:00 | |
| SP9KGR-15 | 2026-09-04 06:50:15 | 50.12832 | 21.81015 | 97° | 44km/h | 15187m | 0.5m/s | 0°C | 0% | 0hPa | 0V | 00:00:00 | 00:00:00 | 00:00:00 | |
| OM5KV | 2026-09-04 06:50:09 | 50.12870 | 21.80906 | 99° | 51km/h | 15166m | 2.5m/s | 0°C | 0% | 0hPa | 0V | 00:00:00 | 00:00:00 | 00:00:00 | |
| SQ9PSP-11 | 2026-09-04 06:50:06 | 50.12888 | 21.80853 | 103° | 51km/h | 15154m | 3.7m/s | 0°C | 0% | 0hPa | 0V | 00:00:00 | 00:00:00 | 00:00:00 | |
| OM5KV | 2026-09-04 06:50:02 | 50.12910 | 21.80781 | 116° | 62km/h | 15142m | 0.6m/s | 0°C | 0% | 0hPa | 0V | 00:00:00 | 00:00:00 | 00:00:00 | |
| SP9KGR-15 | 2026-09-04 06:49:59 | 50.12932 | 21.80732 | 111° | 64km/h | 15129m | 4.5m/s | 0°C | 0% | 0hPa | 0V | 00:00:00 | 00:00:00 | 00:00:00 | |
| OM5KV | 2026-09-04 06:49:57 | 50.12947 | 21.80697 | 143° | 38km/h | 15122m | 2.3m/s | 0°C | 0% | 0hPa | 0V | 00:00:00 | 00:00:00 | 00:00:00 | |
| OM5KV | 2026-09-04 06:49:56 | 50.12953 | 21.80684 | 121° | 49km/h | 15119m | 3.1m/s | 0°C | 0% | 0hPa | 0V | 00:00:00 | 00:00:00 | 00:00:00 | |
| SQ9PSP-11 | 2026-09-04 06:49:51 | 50.12992 | 21.80595 | 133° | 71km/h | 15103m | 1.1m/s | 0°C | 0% | 0hPa | 0V | 00:00:00 | 00:00:00 | 00:00:00 | |
| OM5KV | 2026-09-04 06:49:45 | 50.13040 | 21.80495 | 119° | 60km/h | 15082m | 1.3m/s | 0°C | 0% | 0hPa | 0V | 00:00:00 | 00:00:00 | 00:00:00 | |
| SP9KGR-15 | 2026-09-04 06:49:43 | 50.13060 | 21.80462 | 141° | 49km/h | 15074m | 3.1m/s | 0°C | 0% | 0hPa | 0V | 00:00:00 | 00:00:00 | 00:00:00 | |
| OM5KV | 2026-09-04 06:49:39 | 50.13098 | 21.80392 | 115° | 49km/h | 15061m | -0.4m/s | 0°C | 0% | 0hPa | 0V | 00:00:00 | 00:00:00 | 00:00:00 | |
| SQ9PSP-11 | 2026-09-04 06:49:35 | 50.13133 | 21.80323 | 123° | 57km/h | 15047m | 2.6m/s | 0°C | 0% | 0hPa | 0V | 00:00:00 | 00:00:00 | 00:00:00 | |
| OM5KV | 2026-09-04 06:49:33 | 50.13154 | 21.80290 | 143° | 51km/h | 15040m | 2.9m/s | 0°C | 0% | 0hPa | 0V | 00:00:00 | 00:00:00 | 00:00:00 | |
| SP9KGR-15 | 2026-09-04 06:49:27 | 50.13212 | 21.80184 | 147° | 47km/h | 15017m | 5.6m/s | 0°C | 0% | 0hPa | 0V | 00:00:00 | 00:00:00 | 00:00:00 | |
| OM5KV | 2026-09-04 06:49:18 | 50.13309 | 21.80013 | 145° | 69km/h | 14986m | 4.0m/s | 0°C | 0% | 0hPa | 0V | 00:00:00 | 00:00:00 | 00:00:00 | |
| OM5KV | 2026-09-04 06:49:16 | 50.13331 | 21.79976 | 122° | 71km/h | 14980m | 4.0m/s | 0°C | 0% | 0hPa | 0V | 00:00:00 | 00:00:00 | 00:00:00 | |
| SP9KGR-15 | 2026-09-04 06:49:12 | 50.13375 | 21.79891 | 129° | 57km/h | 14965m | 0.2m/s | 0°C | 0% | 0hPa | 0V | 00:00:00 | 00:00:00 | 00:00:00 | |
| OM5KV | 2026-09-04 06:49:07 | 50.13430 | 21.79795 | 140° | 86km/h | 14946m | 5.6m/s | 0°C | 0% | 0hPa | 0V | 00:00:00 | 00:00:00 | 00:00:00 | |
| OM5KV | 2026-09-04 06:49:05 | 50.13460 | 21.79740 | 136° | 58km/h | 14934m | 4.1m/s | 0°C | 0% | 0hPa | 0V | 00:00:00 | 00:00:00 | 00:00:00 | |
| SQ9PSP-11 | 2026-09-04 06:49:04 | 50.13460 | 21.79740 | 136° | 58km/h | 14934m | 4.1m/s | 0°C | 0% | 0hPa | 0V | 00:00:00 | 00:00:00 | 00:00:00 | |
| OM5KV | 2026-09-04 06:49:02 | 50.13483 | 21.79699 | 126° | 60km/h | 14926m | 4.9m/s | 0°C | 0% | 0hPa | 0V | 00:00:00 | 00:00:00 | 00:00:00 | |
| OM5KV | 2026-09-04 06:49:00 | 50.13503 | 21.79663 | 139° | 69km/h | 14919m | 3.2m/s | 0°C | 0% | 0hPa | 0V | 00:00:00 | 00:00:00 | 00:00:00 | |
| OM5KV | 2026-09-04 06:48:59 | 50.13514 | 21.79642 | 126° | 75km/h | 14917m | 0.3m/s | 0°C | 0% | 0hPa | 0V | 00:00:00 | 00:00:00 | 00:00:00 | |
| SP9KGR-15 | 2026-09-04 06:48:55 | 50.13553 | 21.79566 | 123° | 62km/h | 14901m | 2.7m/s | 0°C | 0% | 0hPa | 0V | 00:00:00 | 00:00:00 | 00:00:00 | |
| OM5KV | 2026-09-04 06:48:53 | 50.13571 | 21.79535 | 141° | 68km/h | 14894m | 3.6m/s | 0°C | 0% | 0hPa | 0V | 00:00:00 | 00:00:00 | 00:00:00 | |
| SQ9PSP-11 | 2026-09-04 06:48:49 | 50.13611 | 21.79460 | 127° | 77km/h | 14880m | 3.3m/s | 0°C | 0% | 0hPa | 0V | 00:00:00 | 00:00:00 | 00:00:00 | |
| OM5KV | 2026-09-04 06:48:46 | 50.13640 | 21.79406 | 139° | 75km/h | 14869m | 3.8m/s | 0°C | 0% | 0hPa | 0V | 00:00:00 | 00:00:00 | 00:00:00 | |
| SP9KGR-15 | 2026-09-04 06:48:40 | 50.13699 | 21.79302 | 147° | 73km/h | 14848m | 2.0m/s | 0°C | 0% | 0hPa | 0V | 00:00:00 | 00:00:00 | 00:00:00 | |
| SQ9PSP-11 | 2026-09-04 06:48:32 | 50.13776 | 21.79164 | 148° | 42km/h | 14819m | 0.9m/s | 0°C | 0% | 0hPa | 0V | 00:00:00 | 00:00:00 | 00:00:00 | |
| SP9KGR-15 | 2026-09-04 06:48:24 | 50.13862 | 21.79036 | 128° | 55km/h | 14789m | 2.3m/s | 0°C | 0% | 0hPa | 0V | 00:00:00 | 00:00:00 | 00:00:00 | |
| SQ9PSP-11 | 2026-09-04 06:48:16 | 50.13958 | 21.78900 | 130° | 71km/h | 14756m | 2.2m/s | 0°C | 0% | 0hPa | 0V | 00:00:00 | 00:00:00 | 00:00:00 | |
| SP9KGR-15 | 2026-09-04 06:48:07 | 50.14073 | 21.78749 | 155° | 60km/h | 14723m | 1.5m/s | 0°C | 0% | 0hPa | 0V | 00:00:00 | 00:00:00 | 00:00:00 | |
| SP9KGR-15 | 2026-09-04 06:47:51 | 50.14273 | 21.78468 | 122° | 49km/h | 14667m | 4.2m/s | 0°C | 0% | 0hPa | 0V | 00:00:00 | 00:00:00 | 00:00:00 | |
| SP9KGR-15 | 2026-09-04 06:47:36 | 50.14446 | 21.78208 | 125° | 57km/h | 14610m | 2.7m/s | 0°C | 0% | 0hPa | 0V | 00:00:00 | 00:00:00 | 00:00:00 | |
| SP9KGR-15 | 2026-09-04 06:47:21 | 50.14618 | 21.77946 | 143° | 49km/h | 14552m | 1.5m/s | 0°C | 0% | 0hPa | 0V | 00:00:00 | 00:00:00 | 00:00:00 | |
| SQ9PSP-11 | 2026-09-04 06:47:09 | 50.14758 | 21.77735 | 134° | 60km/h | 14507m | 5.6m/s | 0°C | 0% | 0hPa | 0V | 00:00:00 | 00:00:00 | 00:00:00 | |
| SP9KGR-15 | 2026-09-04 06:47:05 | 50.14803 | 21.77663 | 121° | 55km/h | 14493m | 3.6m/s | 0°C | 0% | 0hPa | 0V | 00:00:00 | 00:00:00 | 00:00:00 | |
| SQ9PSP-11 | 2026-09-04 06:46:53 | 50.14947 | 21.77442 | 142° | 55km/h | 14448m | 3.1m/s | 0°C | 0% | 0hPa | 0V | 00:00:00 | 00:00:00 | 00:00:00 | |
| SP9KGR-15 | 2026-09-04 06:46:49 | 50.14995 | 21.77366 | 128° | 66km/h | 14434m | 0.5m/s | 0°C | 0% | 0hPa | 0V | 00:00:00 | 00:00:00 | 00:00:00 | |
| SQ9PSP-11 | 2026-09-04 06:46:38 | 50.15130 | 21.77166 | 130° | 71km/h | 14391m | 3.6m/s | 0°C | 0% | 0hPa | 0V | 00:00:00 | 00:00:00 | 00:00:00 | |
| SP9KGR-15 | 2026-09-04 06:46:33 | 50.15195 | 21.77078 | 149° | 62km/h | 14371m | 5.7m/s | 0°C | 0% | 0hPa | 0V | 00:00:00 | 00:00:00 | 00:00:00 | |
| SQ9PSP-11 | 2026-09-04 06:46:21 | 50.15350 | 21.76853 | 148° | 77km/h | 14328m | 4.5m/s | 0°C | 0% | 0hPa | 0V | 00:00:00 | 00:00:00 | 00:00:00 | |
| SP9KGR-15 | 2026-09-04 06:46:16 | 50.15412 | 21.76759 | 125° | 80km/h | 14309m | 3.4m/s | 0°C | 0% | 0hPa | 0V | 00:00:00 | 00:00:00 | 00:00:00 | |
| SQ9PSP-11 | 2026-09-04 06:46:06 | 50.15537 | 21.76558 | 129° | 73km/h | 14274m | 6.0m/s | 0°C | 0% | 0hPa | 0V | 00:00:00 | 00:00:00 | 00:00:00 | |
| SP9KGR-15 | 2026-09-04 06:45:57 | 50.15646 | 21.76382 | 148° | 58km/h | 14244m | 3.4m/s | 0°C | 0% | 0hPa | 0V | 00:00:00 | 00:00:00 | 00:00:00 | |
| SQ9PSP-11 | 2026-09-04 06:45:50 | 50.15734 | 21.76262 | 142° | 73km/h | 14214m | 3.8m/s | 0°C | 0% | 0hPa | 0V | 00:00:00 | 00:00:00 | 00:00:00 | |
| SP9KGR-15 | 2026-09-04 06:45:41 | 50.15849 | 21.76100 | 132° | 73km/h | 14186m | 1.0m/s | 0°C | 0% | 0hPa | 0V | 00:00:00 | 00:00:00 | 00:00:00 | |
| SQ9PSP-11 | 2026-09-04 06:45:34 | 50.15942 | 21.75978 | 134° | 78km/h | 14161m | 4.6m/s | 0°C | 0% | 0hPa | 0V | 00:00:00 | 00:00:00 | 00:00:00 | |
| SP9KGR-15 | 2026-09-04 06:45:25 | 50.16069 | 21.75818 | 142° | 58km/h | 14126m | 4.9m/s | 0°C | 0% | 0hPa | 0V | 00:00:00 | 00:00:00 | 00:00:00 | |
| SQ9PSP-11 | 2026-09-04 06:45:18 | 50.16169 | 21.75688 | 134° | 62km/h | 14101m | 3.6m/s | 0°C | 0% | 0hPa | 0V | 00:00:00 | 00:00:00 | 00:00:00 | |
| SP9KGR-15 | 2026-09-04 06:45:10 | 50.16284 | 21.75545 | 138° | 88km/h | 14073m | 2.9m/s | 0°C | 0% | 0hPa | 0V | 00:00:00 | 00:00:00 | 00:00:00 | |
| SQ9PSP-11 | 2026-09-04 06:45:03 | 50.16388 | 21.75403 | 127° | 75km/h | 14049m | 0.3m/s | 0°C | 0% | 0hPa | 0V | 00:00:00 | 00:00:00 | 00:00:00 | |
| SP9KGR-15 | 2026-09-04 06:44:55 | 50.16506 | 21.75241 | 149° | 77km/h | 14021m | 2.2m/s | 0°C | 0% | 0hPa | 0V | 00:00:00 | 00:00:00 | 00:00:00 | |
| SQ9PSP-11 | 2026-09-04 06:44:47 | 50.16627 | 21.75069 | 132° | 93km/h | 13993m | 5.3m/s | 0°C | 0% | 0hPa | 0V | 00:00:00 | 00:00:00 | 00:00:00 | |
| SP9KGR-15 | 2026-09-04 06:44:39 | 50.16742 | 21.74893 | 141° | 93km/h | 13967m | 5.2m/s | 0°C | 0% | 0hPa | 0V | 00:00:00 | 00:00:00 | 00:00:00 | |
| SQ9PSP-11 | 2026-09-04 06:44:32 | 50.16842 | 21.74745 | 139° | 86km/h | 13940m | 5.2m/s | 0°C | 0% | 0hPa | 0V | 00:00:00 | 00:00:00 | 00:00:00 | |
| SP9KGR-15 | 2026-09-04 06:44:23 | 50.16969 | 21.74556 | 145° | 68km/h | 13905m | 2.0m/s | 0°C | 0% | 0hPa | 0V | 00:00:00 | 00:00:00 | 00:00:00 | |
| SQ9PSP-11 | 2026-09-04 06:44:17 | 50.17063 | 21.74431 | 146° | 64km/h | 13882m | 3.9m/s | 0°C | 0% | 0hPa | 0V | 00:00:00 | 00:00:00 | 00:00:00 | |
| SP9KGR-15 | 2026-09-04 06:44:08 | 50.17211 | 21.74255 | 142° | 88km/h | 13853m | 6.2m/s | 0°C | 0% | 0hPa | 0V | 00:00:00 | 00:00:00 | 00:00:00 | |
| SQ9PSP-11 | 2026-09-04 06:44:01 | 50.17335 | 21.74120 | 149° | 89km/h | 13828m | 2.2m/s | 0°C | 0% | 0hPa | 0V | 00:00:00 | 00:00:00 | 00:00:00 | |
| SP9KGR-15 | 2026-09-04 06:43:52 | 50.17500 | 21.73932 | 138° | 84km/h | 13797m | 1.0m/s | 0°C | 0% | 0hPa | 0V | 00:00:00 | 00:00:00 | 00:00:00 | |
| SQ9PSP-11 | 2026-09-04 06:43:46 | 50.17615 | 21.73820 | 154° | 89km/h | 13774m | 1.0m/s | 0°C | 0% | 0hPa | 0V | 00:00:00 | 00:00:00 | 00:00:00 | |
| SP9KGR-15 | 2026-09-04 06:43:37 | 50.17793 | 21.73631 | 144° | 113km/h | 13740m | 1.6m/s | 0°C | 0% | 0hPa | 0V | 00:00:00 | 00:00:00 | 00:00:00 | |
| SQ9PSP-11 | 2026-09-04 06:43:30 | 50.17936 | 21.73475 | 142° | 113km/h | 13718m | 4.9m/s | 0°C | 0% | 0hPa | 0V | 00:00:00 | 00:00:00 | 00:00:00 | |
| SP9KGR-15 | 2026-09-04 06:43:21 | 50.18119 | 21.73267 | 140° | 95km/h | 13688m | 3.9m/s | 0°C | 0% | 0hPa | 0V | 00:00:00 | 00:00:00 | 00:00:00 | |
| SQ9PSP-11 | 2026-09-04 06:43:15 | 50.18239 | 21.73133 | 143° | 84km/h | 13666m | 3.4m/s | 0°C | 0% | 0hPa | 0V | 00:00:00 | 00:00:00 | 00:00:00 | |
| SP9KGR-15 | 2026-09-04 06:43:05 | 50.18442 | 21.72906 | 136° | 110km/h | 13631m | 1.4m/s | 0°C | 0% | 0hPa | 0V | 00:00:00 | 00:00:00 | 00:00:00 | |
| SQ9PSP-11 | 2026-09-04 06:42:59 | 50.18568 | 21.72763 | 147° | 106km/h | 13608m | 2.0m/s | 0°C | 0% | 0hPa | 0V | 00:00:00 | 00:00:00 | 00:00:00 | |
| SP9KGR-15 | 2026-09-04 06:42:50 | 50.18747 | 21.72537 | 134° | 110km/h | 13575m | 2.8m/s | 0°C | 0% | 0hPa | 0V | 00:00:00 | 00:00:00 | 00:00:00 | |
| SQ9PSP-11 | 2026-09-04 06:42:43 | 50.18887 | 21.72358 | 142° | 117km/h | 13551m | 0.3m/s | 0°C | 0% | 0hPa | 0V | 00:00:00 | 00:00:00 | 00:00:00 | |
| SP9KGR-15 | 2026-09-04 06:42:35 | 50.19051 | 21.72145 | 133° | 93km/h | 13522m | 1.6m/s | 0°C | 0% | 0hPa | 0V | 00:00:00 | 00:00:00 | 00:00:00 | |
| SQ9PSP-11 | 2026-09-04 06:42:27 | 50.19212 | 21.71920 | 145° | 113km/h | 13495m | 3.2m/s | 0°C | 0% | 0hPa | 0V | 00:00:00 | 00:00:00 | 00:00:00 | |
| SP9KGR-15 | 2026-09-04 06:42:19 | 50.19369 | 21.71694 | 136° | 111km/h | 13466m | 4.0m/s | 0°C | 0% | 0hPa | 0V | 00:00:00 | 00:00:00 | 00:00:00 | |
| SQ9PSP-11 | 2026-09-04 06:42:11 | 50.19534 | 21.71479 | 148° | 99km/h | 13437m | 2.3m/s | 0°C | 0% | 0hPa | 0V | 00:00:00 | 00:00:00 | 00:00:00 | |
| SQ9EZE-14 | 2026-09-04 06:42:04 | 50.19680 | 21.71295 | 137° | 110km/h | 13411m | 1.6m/s | 0°C | 0% | 0hPa | 0V | 00:00:00 | 00:00:00 | 00:00:00 | |
| SP9KGR-15 | 2026-09-04 06:42:01 | 50.19745 | 21.71218 | 135° | 115km/h | 13400m | 0.0m/s | 0°C | 0% | 0hPa | 0V | 00:00:00 | 00:00:00 | 00:00:00 | |
| SQ9PSP-11 | 2026-09-04 06:41:55 | 50.19877 | 21.71071 | 146° | 97km/h | 13380m | 1.9m/s | 0°C | 0% | 0hPa | 0V | 00:00:00 | 00:00:00 | 00:00:00 | |
| SQ9EZE-14 | 2026-09-04 06:41:48 | 50.20029 | 21.70896 | 141° | 93km/h | 13353m | -0.3m/s | 0°C | 0% | 0hPa | 0V | 00:00:00 | 00:00:00 | 00:00:00 | |
| SP9KGR-15 | 2026-09-04 06:41:46 | 50.20073 | 21.70844 | 147° | 122km/h | 13347m | -1.1m/s | 0°C | 0% | 0hPa | 0V | 00:00:00 | 00:00:00 | 00:00:00 | |
| SQ9PSP-11 | 2026-09-04 06:41:40 | 50.20212 | 21.70700 | 152° | 104km/h | 13325m | 2.1m/s | 0°C | 0% | 0hPa | 0V | 00:00:00 | 00:00:00 | 00:00:00 | |
| SQ9EZE-14 | 2026-09-04 06:41:32 | 50.20408 | 21.70507 | 142° | 124km/h | 13295m | 1.7m/s | 0°C | 0% | 0hPa | 0V | 00:00:00 | 00:00:00 | 00:00:00 | |
| SP9KGR-15 | 2026-09-04 06:41:29 | 50.20482 | 21.70434 | 143° | 117km/h | 13285m | 1.5m/s | 0°C | 0% | 0hPa | 0V | 00:00:00 | 00:00:00 | 00:00:00 | |
| SQ9PSP-11 | 2026-09-04 06:41:24 | 50.20608 | 21.70319 | 154° | 120km/h | 13266m | 3.0m/s | 0°C | 0% | 0hPa | 0V | 00:00:00 | 00:00:00 | 00:00:00 | |
| SQ9EZE-14 | 2026-09-04 06:41:15 | 50.20840 | 21.70094 | 144° | 128km/h | 13234m | 3.0m/s | 0°C | 0% | 0hPa | 0V | 00:00:00 | 00:00:00 | 00:00:00 | |
| SP9KGR-15 | 2026-09-04 06:41:14 | 50.20869 | 21.70067 | 156° | 141km/h | 13231m | 3.1m/s | 0°C | 0% | 0hPa | 0V | 00:00:00 | 00:00:00 | 00:00:00 | |
| SQ9PSP-11 | 2026-09-04 06:41:09 | 50.21007 | 21.69938 | 142° | 142km/h | 13213m | 1.3m/s | 0°C | 0% | 0hPa | 0V | 00:00:00 | 00:00:00 | 00:00:00 | |
| SQ9EZE-14 | 2026-09-04 06:41:00 | 50.21252 | 21.69686 | 151° | 126km/h | 13182m | 0.2m/s | 0°C | 0% | 0hPa | 0V | 00:00:00 | 00:00:00 | 00:00:00 | |
| SP9KGR-15 | 2026-09-04 06:40:57 | 50.21337 | 21.69596 | 153° | 128km/h | 13171m | 1.6m/s | 0°C | 0% | 0hPa | 0V | 00:00:00 | 00:00:00 | 00:00:00 | |
| SQ9PSP-11 | 2026-09-04 06:40:52 | 50.21473 | 21.69444 | 144° | 119km/h | 13154m | 1.3m/s | 0°C | 0% | 0hPa | 0V | 00:00:00 | 00:00:00 | 00:00:00 | |
| SP9KGR-15 | 2026-09-04 06:40:41 | 50.21765 | 21.69114 | 142° | 131km/h | 13116m | 3.5m/s | 0°C | 0% | 0hPa | 0V | 00:00:00 | 00:00:00 | 00:00:00 | |
| SQ9PSP-11 | 2026-09-04 06:40:35 | 50.21922 | 21.68937 | 138° | 128km/h | 13095m | 2.3m/s | 0°C | 0% | 0hPa | 0V | 00:00:00 | 00:00:00 | 00:00:00 | |
| SP9KGR-15 | 2026-09-04 06:40:26 | 50.22147 | 21.68671 | 136° | 124km/h | 13062m | 1.2m/s | 0°C | 0% | 0hPa | 0V | 00:00:00 | 00:00:00 | 00:00:00 | |
| SQ9PSP-11 | 2026-09-04 06:40:20 | 50.22300 | 21.68495 | 141° | 117km/h | 13042m | 3.3m/s | 0°C | 0% | 0hPa | 0V | 00:00:00 | 00:00:00 | 00:00:00 | |
| SP9KGR-15 | 2026-09-04 06:40:09 | 50.22589 | 21.68165 | 150° | 144km/h | 13003m | 3.2m/s | 0°C | 0% | 0hPa | 0V | 00:00:00 | 00:00:00 | 00:00:00 | |
| SQ9PSP-11 | 2026-09-04 06:40:04 | 50.22721 | 21.68020 | 139° | 117km/h | 12986m | 5.0m/s | 0°C | 0% | 0hPa | 0V | 00:00:00 | 00:00:00 | 00:00:00 | |
| SQ9EZE-14 | 2026-09-04 06:39:53 | 50.23013 | 21.67697 | 153° | 128km/h | 12947m | 0.9m/s | 0°C | 0% | 0hPa | 0V | 00:00:00 | 00:00:00 | 00:00:00 | |
| SQ9PSP-11 | 2026-09-04 06:39:49 | 50.23119 | 21.67582 | 143° | 120km/h | 12932m | 6.2m/s | 0°C | 0% | 0hPa | 0V | 00:00:00 | 00:00:00 | 00:00:00 | |
| SP9KGR-15 | 2026-09-04 06:39:37 | 50.23443 | 21.67240 | 149° | 113km/h | 12890m | 2.1m/s | 0°C | 0% | 0hPa | 0V | 00:00:00 | 00:00:00 | 00:00:00 | |
| SQ9PSP-11 | 2026-09-04 06:39:33 | 50.23551 | 21.67125 | 145° | 133km/h | 12875m | 4.3m/s | 0°C | 0% | 0hPa | 0V | 00:00:00 | 00:00:00 | 00:00:00 | |
| SP9KGR-15 | 2026-09-04 06:39:21 | 50.23877 | 21.66790 | 152° | 115km/h | 12832m | 1.7m/s | 0°C | 0% | 0hPa | 0V | 00:00:00 | 00:00:00 | 00:00:00 | |
| SQ9PSP-11 | 2026-09-04 06:39:18 | 50.23955 | 21.66706 | 156° | 108km/h | 12821m | 3.7m/s | 0°C | 0% | 0hPa | 0V | 00:00:00 | 00:00:00 | 00:00:00 | |
| SP9KGR-15 | 2026-09-04 06:39:04 | 50.24312 | 21.66325 | 144° | 122km/h | 12775m | 2.1m/s | 0°C | 0% | 0hPa | 0V | 00:00:00 | 00:00:00 | 00:00:00 | |
| SQ9PSP-11 | 2026-09-04 06:39:01 | 50.24389 | 21.66245 | 137° | 128km/h | 12765m | 6.0m/s | 0°C | 0% | 0hPa | 0V | 00:00:00 | 00:00:00 | 00:00:00 | |
| SP9KGR-15 | 2026-09-04 06:38:48 | 50.24723 | 21.65900 | 146° | 122km/h | 12717m | 1.4m/s | 0°C | 0% | 0hPa | 0V | 00:00:00 | 00:00:00 | 00:00:00 | |
| SQ9PSP-11 | 2026-09-04 06:38:46 | 50.24775 | 21.65853 | 153° | 120km/h | 12711m | 2.1m/s | 0°C | 0% | 0hPa | 0V | 00:00:00 | 00:00:00 | 00:00:00 | |
| SQ9PSP-11 | 2026-09-04 06:38:30 | 50.25208 | 21.65437 | 158° | 117km/h | 12657m | 4.2m/s | 0°C | 0% | 0hPa | 0V | 00:00:00 | 00:00:00 | 00:00:00 | |
| SP9KGR-15 | 2026-09-04 06:38:16 | 50.25603 | 21.65092 | 153° | 141km/h | 12608m | 0.0m/s | 0°C | 0% | 0hPa | 0V | 00:00:00 | 00:00:00 | 00:00:00 | |
| SQ9PSP-11 | 2026-09-04 06:38:14 | 50.25660 | 21.65046 | 150° | 126km/h | 12600m | 2.0m/s | 0°C | 0% | 0hPa | 0V | 00:00:00 | 00:00:00 | 00:00:00 | |
| SP9KGR-15 | 2026-09-04 06:38:00 | 50.26079 | 21.64702 | 161° | 142km/h | 12553m | 0.6m/s | 0°C | 0% | 0hPa | 0V | 00:00:00 | 00:00:00 | 00:00:00 | |
| SQ9PSP-11 | 2026-09-04 06:37:58 | 50.26141 | 21.64652 | 154° | 128km/h | 12546m | 2.0m/s | 0°C | 0% | 0hPa | 0V | 00:00:00 | 00:00:00 | 00:00:00 | |
| SP9KGR-15 | 2026-09-04 06:37:45 | 50.26555 | 21.64358 | 157° | 126km/h | 12502m | 0.6m/s | 0°C | 0% | 0hPa | 0V | 00:00:00 | 00:00:00 | 00:00:00 | |
| SQ9PSP-11 | 2026-09-04 06:37:42 | 50.26653 | 21.64291 | 152° | 137km/h | 12493m | 0.3m/s | 0°C | 0% | 0hPa | 0V | 00:00:00 | 00:00:00 | 00:00:00 | |
| SP9KGR-15 | 2026-09-04 06:37:29 | 50.27082 | 21.64007 | 157° | 161km/h | 12447m | 1.7m/s | 0°C | 0% | 0hPa | 0V | 00:00:00 | 00:00:00 | 00:00:00 | |
| SQ9PSP-11 | 2026-09-04 06:37:27 | 50.27149 | 21.63965 | 153° | 137km/h | 12441m | 3.2m/s | 0°C | 0% | 0hPa | 0V | 00:00:00 | 00:00:00 | 00:00:00 | |
| SP9KGR-15 | 2026-09-04 06:37:13 | 50.27640 | 21.63638 | 155° | 162km/h | 12390m | 2.0m/s | 0°C | 0% | 0hPa | 0V | 00:00:00 | 00:00:00 | 00:00:00 | |
| SQ9PSP-11 | 2026-09-04 06:37:11 | 50.27712 | 21.63594 | 158° | 146km/h | 12382m | 3.8m/s | 0°C | 0% | 0hPa | 0V | 00:00:00 | 00:00:00 | 00:00:00 | |
| SP9KGR-15 | 2026-09-04 06:36:57 | 50.28230 | 21.63238 | 154° | 179km/h | 12331m | 2.3m/s | 0°C | 0% | 0hPa | 0V | 00:00:00 | 00:00:00 | 00:00:00 | |
| SQ9PSP-11 | 2026-09-04 06:36:55 | 50.28307 | 21.63184 | 160° | 155km/h | 12322m | 2.4m/s | 0°C | 0% | 0hPa | 0V | 00:00:00 | 00:00:00 | 00:00:00 | |
| SP9KGR-15 | 2026-09-04 06:36:41 | 50.28856 | 21.62799 | 154° | 168km/h | 12274m | 3.1m/s | 0°C | 0% | 0hPa | 0V | 00:00:00 | 00:00:00 | 00:00:00 | |
| SQ9PSP-11 | 2026-09-04 06:36:40 | 50.28896 | 21.62769 | 157° | 184km/h | 12272m | 0.5m/s | 0°C | 0% | 0hPa | 0V | 00:00:00 | 00:00:00 | 00:00:00 | |
| SP9KGR-15 | 2026-09-04 06:36:25 | 50.29475 | 21.62312 | 150° | 161km/h | 12220m | 2.4m/s | 0°C | 0% | 0hPa | 0V | 00:00:00 | 00:00:00 | 00:00:00 | |
| SQ9PSP-11 | 2026-09-04 06:36:24 | 50.29513 | 21.62284 | 159° | 172km/h | 12217m | 3.1m/s | 0°C | 0% | 0hPa | 0V | 00:00:00 | 00:00:00 | 00:00:00 | |
| SP9KGR-15 | 2026-09-04 06:36:10 | 50.30045 | 21.61856 | 152° | 153km/h | 12170m | 6.7m/s | 0°C | 0% | 0hPa | 0V | 00:00:00 | 00:00:00 | 00:00:00 | |
| SQ9PSP-11 | 2026-09-04 06:36:08 | 50.30121 | 21.61795 | 148° | 173km/h | 12164m | 1.7m/s | 0°C | 0% | 0hPa | 0V | 00:00:00 | 00:00:00 | 00:00:00 | |
| SP9KGR-15 | 2026-09-04 06:35:55 | 50.30611 | 21.61391 | 152° | 155km/h | 12118m | 1.5m/s | 0°C | 0% | 0hPa | 0V | 00:00:00 | 00:00:00 | 00:00:00 | |
| SQ9PSP-11 | 2026-09-04 06:35:51 | 50.30762 | 21.61267 | 157° | 168km/h | 12105m | 3.0m/s | 0°C | 0% | 0hPa | 0V | 00:00:00 | 00:00:00 | 00:00:00 | |
| SP9KGR-15 | 2026-09-04 06:35:39 | 50.31224 | 21.60894 | 149° | 155km/h | 12067m | 2.9m/s | 0°C | 0% | 0hPa | 0V | 00:00:00 | 00:00:00 | 00:00:00 | |
| SQ9PSP-11 | 2026-09-04 06:35:35 | 50.31373 | 21.60767 | 155° | 161km/h | 12051m | 3.4m/s | 0°C | 0% | 0hPa | 0V | 00:00:00 | 00:00:00 | 00:00:00 | |
| SP9KGR-15 | 2026-09-04 06:35:22 | 50.31865 | 21.60354 | 154° | 177km/h | 12007m | 5.8m/s | 0°C | 0% | 0hPa | 0V | 00:00:00 | 00:00:00 | 00:00:00 | |
| SQ9PSP-11 | 2026-09-04 06:35:20 | 50.31942 | 21.60285 | 149° | 159km/h | 12001m | 3.2m/s | 0°C | 0% | 0hPa | 0V | 00:00:00 | 00:00:00 | 00:00:00 | |
| SP9KGR-15 | 2026-09-04 06:35:07 | 50.32433 | 21.59871 | 157° | 166km/h | 11959m | 2.7m/s | 0°C | 0% | 0hPa | 0V | 00:00:00 | 00:00:00 | 00:00:00 | |
| SQ9PSP-11 | 2026-09-04 06:35:04 | 50.32548 | 21.59774 | 155° | 159km/h | 11950m | 0.9m/s | 0°C | 0% | 0hPa | 0V | 00:00:00 | 00:00:00 | 00:00:00 | |
| SP9KGR-15 | 2026-09-04 06:34:51 | 50.33042 | 21.59343 | 152° | 172km/h | 11905m | 4.0m/s | 0°C | 0% | 0hPa | 0V | 00:00:00 | 00:00:00 | 00:00:00 | |
| SQ9PSP-11 | 2026-09-04 06:34:33 | 50.33724 | 21.58740 | 155° | 172km/h | 11847m | 2.0m/s | 0°C | 0% | 0hPa | 0V | 00:00:00 | 00:00:00 | 00:00:00 | |
| SQ9PSP-11 | 2026-09-04 06:34:17 | 50.34324 | 21.58206 | 150° | 162km/h | 11784m | 5.1m/s | 0°C | 0% | 0hPa | 0V | 00:00:00 | 00:00:00 | 00:00:00 | |
| SQ9PSP-11 | 2026-09-04 06:34:01 | 50.34925 | 21.57675 | 155° | 153km/h | 11731m | 3.2m/s | 0°C | 0% | 0hPa | 0V | 00:00:00 | 00:00:00 | 00:00:00 | |
| SQ9PSP-11 | 2026-09-04 06:33:46 | 50.35486 | 21.57180 | 149° | 183km/h | 11682m | 2.8m/s | 0°C | 0% | 0hPa | 0V | 00:00:00 | 00:00:00 | 00:00:00 | |
| SQ9PSP-11 | 2026-09-04 06:33:30 | 50.36095 | 21.56667 | 151° | 177km/h | 11628m | 3.4m/s | 0°C | 0% | 0hPa | 0V | 00:00:00 | 00:00:00 | 00:00:00 | |
| SQ9PSP-11 | 2026-09-04 06:33:15 | 50.36662 | 21.56188 | 155° | 188km/h | 11580m | 2.2m/s | 0°C | 0% | 0hPa | 0V | 00:00:00 | 00:00:00 | 00:00:00 | |
| SQ9PSP-11 | 2026-09-04 06:32:59 | 50.37266 | 21.55677 | 156° | 172km/h | 11523m | 2.5m/s | 0°C | 0% | 0hPa | 0V | 00:00:00 | 00:00:00 | 00:00:00 | |
| SQ9PSP-11 | 2026-09-04 06:32:43 | 50.37864 | 21.55176 | 149° | 179km/h | 11472m | 1.6m/s | 0°C | 0% | 0hPa | 0V | 00:00:00 | 00:00:00 | 00:00:00 | |
| SQ9PSP-11 | 2026-09-04 06:32:27 | 50.38464 | 21.54676 | 156° | 166km/h | 11421m | 5.6m/s | 0°C | 0% | 0hPa | 0V | 00:00:00 | 00:00:00 | 00:00:00 | |
| SQ9PSP-11 | 2026-09-04 06:32:11 | 50.39064 | 21.54184 | 156° | 155km/h | 11369m | 2.1m/s | 0°C | 0% | 0hPa | 0V | 00:00:00 | 00:00:00 | 00:00:00 | |
| SQ9PSP-11 | 2026-09-04 06:31:54 | 50.39696 | 21.53662 | 149° | 170km/h | 11311m | 0.4m/s | 0°C | 0% | 0hPa | 0V | 00:00:00 | 00:00:00 | 00:00:00 | |
| SQ9PSP-11 | 2026-09-04 06:31:37 | 50.40321 | 21.53147 | 156° | 172km/h | 11254m | 0.8m/s | 0°C | 0% | 0hPa | 0V | 00:00:00 | 00:00:00 | 00:00:00 | |
| SQ9PSP-11 | 2026-09-04 06:31:13 | 50.41186 | 21.52401 | 157° | 157km/h | 11174m | 3.4m/s | 0°C | 0% | 0hPa | 0V | 00:00:00 | 00:00:00 | 00:00:00 | |
| SQ9PSP-11 | 2026-09-04 06:30:56 | 50.41792 | 21.51865 | 157° | 168km/h | 11115m | 5.9m/s | 0°C | 0% | 0hPa | 0V | 00:00:00 | 00:00:00 | 00:00:00 | |
| SQ9PSP-11 | 2026-09-04 06:30:40 | 50.42357 | 21.51367 | 149° | 170km/h | 11059m | 1.4m/s | 0°C | 0% | 0hPa | 0V | 00:00:00 | 00:00:00 | 00:00:00 | |
| SQ9PSP-11 | 2026-09-04 06:30:22 | 50.42987 | 21.50801 | 147° | 166km/h | 10997m | 0.3m/s | 0°C | 0% | 0hPa | 0V | 00:00:00 | 00:00:00 | 00:00:00 | |
| SQ9PSP-11 | 2026-09-04 06:30:06 | 50.43545 | 21.50301 | 148° | 146km/h | 10945m | 2.2m/s | 0°C | 0% | 0hPa | 0V | 00:00:00 | 00:00:00 | 00:00:00 | |
| SQ9PSP-11 | 2026-09-04 06:29:51 | 50.44074 | 21.49837 | 151° | 150km/h | 10895m | 4.3m/s | 0°C | 0% | 0hPa | 0V | 00:00:00 | 00:00:00 | 00:00:00 | |
| SQ9PSP-11 | 2026-09-04 06:29:33 | 50.44704 | 21.49293 | 147° | 157km/h | 10835m | 1.3m/s | 0°C | 0% | 0hPa | 0V | 00:00:00 | 00:00:00 | 00:00:00 | |
| SQ9PSP-11 | 2026-09-04 06:29:17 | 50.45260 | 21.48814 | 148° | 166km/h | 10780m | -0.0m/s | 0°C | 0% | 0hPa | 0V | 00:00:00 | 00:00:00 | 00:00:00 | |
| SQ9PSP-11 | 2026-09-04 06:29:01 | 50.45810 | 21.48346 | 158° | 153km/h | 10727m | 4.0m/s | 0°C | 0% | 0hPa | 0V | 00:00:00 | 00:00:00 | 00:00:00 | |
| SQ9PSP-11 | 2026-09-04 06:28:43 | 50.46432 | 21.47824 | 156° | 146km/h | 10666m | 3.7m/s | 0°C | 0% | 0hPa | 0V | 00:00:00 | 00:00:00 | 00:00:00 | |
| SQ9PSP-11 | 2026-09-04 06:28:26 | 50.47023 | 21.47337 | 158° | 151km/h | 10606m | 2.9m/s | 0°C | 0% | 0hPa | 0V | 00:00:00 | 00:00:00 | 00:00:00 | |
| SQ9PSP-11 | 2026-09-04 06:28:10 | 50.47571 | 21.46877 | 149° | 162km/h | 10552m | 2.7m/s | 0°C | 0% | 0hPa | 0V | 00:00:00 | 00:00:00 | 00:00:00 | |
| SQ9PSP-11 | 2026-09-04 06:27:53 | 50.48154 | 21.46388 | 153° | 166km/h | 10495m | 1.8m/s | 0°C | 0% | 0hPa | 0V | 00:00:00 | 00:00:00 | 00:00:00 | |
| SQ9PSP-11 | 2026-09-04 06:27:37 | 50.48697 | 21.45936 | 151° | 137km/h | 10441m | 3.4m/s | 0°C | 0% | 0hPa | 0V | 00:00:00 | 00:00:00 | 00:00:00 | |
| SQ9PSP-11 | 2026-09-04 06:27:20 | 50.49264 | 21.45467 | 157° | 150km/h | 10384m | 1.8m/s | 0°C | 0% | 0hPa | 0V | 00:00:00 | 00:00:00 | 00:00:00 | |
| SQ9PSP-11 | 2026-09-04 06:26:37 | 50.50677 | 21.44308 | 154° | 133km/h | 10238m | 5.1m/s | 0°C | 0% | 0hPa | 0V | 00:00:00 | 00:00:00 | 00:00:00 | |
| SQ9PSP-11 | 2026-09-04 06:21:42 | 50.60016 | 21.36062 | 143° | 130km/h | 9240m | 2.1m/s | 0°C | 0% | 0hPa | 0V | 00:00:00 | 00:00:00 | 00:00:00 | |
| SQ9PSP-11 | 2026-09-04 06:21:25 | 50.60505 | 21.35560 | 146° | 122km/h | 9185m | 1.6m/s | 0°C | 0% | 0hPa | 0V | 00:00:00 | 00:00:00 | 00:00:00 | |
| SQ9PSP-11 | 2026-09-04 06:21:09 | 50.60964 | 21.35084 | 149° | 131km/h | 9134m | 2.2m/s | 0°C | 0% | 0hPa | 0V | 00:00:00 | 00:00:00 | 00:00:00 | |
| SQ9PSP-11 | 2026-09-04 06:20:53 | 50.61425 | 21.34584 | 141° | 126km/h | 9088m | 4.4m/s | 0°C | 0% | 0hPa | 0V | 00:00:00 | 00:00:00 | 00:00:00 | |
| SQ9PSP-11 | 2026-09-04 06:19:05 | 50.64429 | 21.31272 | 151° | 137km/h | 8761m | 1.3m/s | 0°C | 0% | 0hPa | 0V | 00:00:00 | 00:00:00 | 00:00:00 | |
| AKAW683 | 2026-09-04 06:11:09 | 50.76198 | 21.16294 | 139° | 106km/h | 7071m | 2.7m/s | 0°C | -1.0% | -1.0hPa | 0V | 00:00:00 | 00:00:00 | 00:00:00 | |
| AKAW683 | 2026-09-04 06:10:37 | 50.76434 | 21.15932 | 142° | 100km/h | 7029m | 2.9m/s | 0°C | -1.0% | -1.0hPa | 0V | 00:00:00 | 00:00:00 | 00:00:00 | |
| AKAW683 | 2026-09-04 06:10:07 | 50.76971 | 21.15072 | 131° | 89km/h | 6930m | 1.9m/s | 0°C | -1.0% | -1.0hPa | 0V | 00:00:00 | 00:00:00 | 00:00:00 | |
| AKAW683 | 2026-09-04 06:09:35 | 50.77810 | 21.13665 | 138° | 91km/h | 6769m | 2.2m/s | 0°C | -1.0% | -1.0hPa | 0V | 00:00:00 | 00:00:00 | 00:00:00 | |
| AKAW683 | 2026-09-04 06:09:04 | 50.78118 | 21.13124 | 136° | 110km/h | 6707m | 2.9m/s | 0°C | -1.0% | -1.0hPa | 0V | 00:00:00 | 00:00:00 | 00:00:00 | |
| AKAW683 | 2026-09-04 06:08:33 | 50.78547 | 21.12339 | 121° | 91km/h | 6614m | 1.7m/s | 0°C | -1.0% | -1.0hPa | 0V | 00:00:00 | 00:00:00 | 00:00:00 | |
| AKAW683 | 2026-09-04 06:08:02 | 50.79015 | 21.11435 | 122° | 82km/h | 6508m | 2.9m/s | 0°C | -1.0% | -1.0hPa | 0V | 00:00:00 | 00:00:00 | 00:00:00 | |
| AKAW683 | 2026-09-04 06:07:31 | 50.79451 | 21.10523 | 130° | 100km/h | 6399m | 5.3m/s | 0°C | -1.0% | -1.0hPa | 0V | 00:00:00 | 00:00:00 | 00:00:00 | |
| AKAW683 | 2026-09-04 06:07:00 | 50.79851 | 21.09651 | 128° | 82km/h | 6290m | 1.1m/s | 0°C | -1.0% | -1.0hPa | 0V | 00:00:00 | 00:00:00 | 00:00:00 | |
| AKAW683 | 2026-09-04 06:06:29 | 50.80277 | 21.08700 | 126° | 110km/h | 6171m | 3.4m/s | 0°C | -1.0% | -1.0hPa | 0V | 00:00:00 | 00:00:00 | 00:00:00 | |
| AKAW683 | 2026-09-04 06:05:58 | 50.80700 | 21.07753 | 127° | 82km/h | 6046m | 2.5m/s | 0°C | -1.0% | -1.0hPa | 0V | 00:00:00 | 00:00:00 | 00:00:00 | |
| AKAW683 | 2026-09-04 06:05:27 | 50.81126 | 21.06794 | 122° | 80km/h | 5923m | 2.8m/s | 0°C | -1.0% | -1.0hPa | 0V | 00:00:00 | 00:00:00 | 00:00:00 | |
| AKAW683 | 2026-09-04 06:04:56 | 50.81568 | 21.05787 | 126° | 97km/h | 5804m | 3.5m/s | 0°C | -1.0% | -1.0hPa | 0V | 00:00:00 | 00:00:00 | 00:00:00 | |
| AKAW683 | 2026-09-04 06:04:25 | 50.81971 | 21.04860 | 114° | 89km/h | 5690m | 4.3m/s | 0°C | -1.0% | -1.0hPa | 0V | 00:00:00 | 00:00:00 | 00:00:00 | |
| AKAW683 | 2026-09-04 06:03:54 | 50.82379 | 21.03890 | 122° | 100km/h | 5576m | 4.5m/s | 0°C | -1.0% | -1.0hPa | 0V | 00:00:00 | 00:00:00 | 00:00:00 | |
| AKAW683 | 2026-09-04 06:03:23 | 50.82800 | 21.02866 | 122° | 106km/h | 5462m | 3.4m/s | 0°C | -1.0% | -1.0hPa | 0V | 00:00:00 | 00:00:00 | 00:00:00 | |
| AKAW683 | 2026-09-04 05:59:46 | 50.85423 | 20.95835 | 108° | 71km/h | 4667m | 2.5m/s | 0°C | -1.0% | -1.0hPa | 0V | 00:00:00 | 00:00:00 | 00:00:00 | |
| AKAW683 | 2026-09-04 05:59:15 | 50.85522 | 20.95314 | 111° | 49km/h | 4578m | 3.6m/s | 0°C | -1.0% | -1.0hPa | 0V | 00:00:00 | 00:00:00 | 00:00:00 |